Time;durP1;ratioP1;P1;durP2;ratioP2;P2;SDS_P1;SDS_P2;PMS_P1;PMS_P2;Temp;Humidity;BMP_temperature;BMP_pressure;BME280_temperature;BME280_humidity;BME280_pressure;Samples;Min_cycle;Max_cycle;Signal;HPM_P1;HPM_P2
2023/05/17 00:01:13;;;;;;;;;;;;;;;16.66;100.00;98443.22;4217185;28;32944;-96
2023/05/17 00:04:04;;;;;;;;;;;;;;;16.49;100.00;98439.63;4192795;34;32956;-96
2023/05/17 00:06:52;;;;;;;;;;;;;;;16.91;100.00;98445.50;4224531;28;34380;-96
2023/05/17 00:10:03;;;;;;;;;;;;;;;16.58;100.00;98451.47;4183032;28;34802;-96
2023/05/17 00:12:34;;;;;;;;;;;;;;;16.20;100.00;98450.72;4176273;34;33609;-96
2023/05/17 00:15:24;;;;;;;;;;;;;;;16.16;100.00;98450.00;4179920;34;35299;-96
2023/05/17 00:18:12;;;;;;;;;;;;;;;16.33;100.00;98456.25;4164520;28;34287;-96
2023/05/17 00:21:00;;;;;;;;;;;;;;;16.25;100.00;98446.09;4178795;28;33707;-96
2023/05/17 00:23:33;;;;;;;;;;;;;;;16.14;100.00;98456.28;4162495;29;31184;-96
2023/05/17 00:26:13;;;;;;;;;;;;;;;16.29;100.00;98450.28;4187632;28;34862;-96
2023/05/17 00:28:57;;;;;;;;;;;;;;;16.04;100.00;98447.97;4190603;34;35232;-96
2023/05/17 00:32:01;;;;;;;;;;;;;;;16.08;100.00;98442.50;4181428;34;34431;-96
2023/05/17 00:35:14;;;;;;;;;;;;;;;16.01;100.00;98441.09;4183187;28;32241;-96
2023/05/17 00:38:10;;;;;;;;;;;;;;;15.87;100.00;98438.28;4194785;28;32902;-96
2023/05/17 00:40:49;;;;;;;;;;;;;;;16.01;100.00;98442.88;4171379;29;33444;-96
2023/05/17 00:43:19;;;;;;;;;;;;;;;15.91;100.00;98438.03;4172874;28;34663;-96
2023/05/17 00:46:15;;;;;;;;;;;;;;;15.80;100.00;98436.88;4174668;34;32493;-96
2023/05/17 00:49:26;;;;;;;;;;;;;;;15.67;100.00;98432.16;4167249;29;33131;-96
2023/05/17 00:52:37;;;;;;;;;;;;;;;16.00;100.00;98447.25;4175824;34;33559;-96
2023/05/17 00:55:32;;;;;;;;;;;;;;;16.36;100.00;98450.81;4166901;34;33675;-96
2023/05/17 00:58:25;;;;;;;;;;;;;;;16.14;100.00;98445.78;4176187;34;32246;-96
2023/05/17 01:01:14;;;;;;;;;;;;;;;16.02;100.00;98453.28;4200923;28;33248;-96
2023/05/17 01:04:02;;;;;;;;;;;;;;;16.00;100.00;98444.63;4169207;29;33827;-96
2023/05/17 01:06:40;;;;;;;;;;;;;;;16.02;100.00;98455.91;4163511;34;33327;-96
2023/05/17 01:10:04;;;;;;;;;;;;;;;16.12;100.00;98459.81;4160924;34;34002;-96
2023/05/17 01:12:56;;;;;;;;;;;;;;;16.32;100.00;98473.75;4177015;34;32774;-96
2023/05/17 01:16:27;;;;;;;;;;;;;;;16.43;100.00;98466.22;4207319;28;34474;-96
2023/05/17 01:19:44;;;;;;;;;;;;;;;16.49;100.00;98468.53;4174534;34;31971;-96
2023/05/17 01:23:07;;;;;;;;;;;;;;;16.38;100.00;98465.59;4180435;34;31863;-96
2023/05/17 01:25:52;;;;;;;;;;;;;;;16.49;100.00;98457.19;4177866;28;32666;-96
2023/05/17 01:28:32;;;;;;;;;;;;;;;16.20;100.00;98456.84;4193361;28;34402;-96
2023/05/17 01:31:04;;;;;;;;;;;;;;;16.27;100.00;98454.75;4191810;28;33352;-96
2023/05/17 01:33:36;;;;;;;;;;;;;;;16.39;100.00;98451.53;4165434;34;31957;-96
2023/05/17 01:36:29;;;;;;;;;;;;;;;15.96;100.00;98437.84;4180262;34;33062;-96
2023/05/17 01:39:32;;;;;;;;;;;;;;;15.78;100.00;98422.97;4174523;34;34435;-96
2023/05/17 01:42:30;;;;;;;;;;;;;;;15.71;100.00;98417.94;4181953;34;34990;-96
2023/05/17 01:45:38;;;;;;;;;;;;;;;15.68;100.00;98410.22;4181558;34;32691;-96
2023/05/17 01:48:46;;;;;;;;;;;;;;;15.51;100.00;98415.37;4187252;28;33244;-96
2023/05/17 01:52:34;;;;;;;;;;;;;;;15.35;100.00;98408.22;4228983;28;35297;-96
2023/05/17 01:55:37;;;;;;;;;;;;;;;15.23;100.00;98398.28;4195050;28;34735;-96
2023/05/17 01:58:47;;;;;;;;;;;;;;;15.12;100.00;98406.66;4178761;34;34016;-96
2023/05/17 02:01:38;;;;;;;;;;;;;;;14.95;100.00;98406.53;4188079;28;32845;-96
2023/05/17 02:04:30;;;;;;;;;;;;;;;15.37;100.00;98413.41;4183526;28;33977;-96
2023/05/17 02:07:33;;;;;;;;;;;;;;;15.51;100.00;98412.75;4201375;34;34788;-96
2023/05/17 02:10:44;;;;;;;;;;;;;;;15.45;100.00;98415.69;4182751;34;31942;-96
2023/05/17 02:13:24;;;;;;;;;;;;;;;14.77;100.00;98421.25;4163734;29;32865;-96
2023/05/17 02:16:49;;;;;;;;;;;;;;;14.76;100.00;98430.91;4197947;28;35925;-96
2023/05/17 02:19:36;;;;;;;;;;;;;;;14.45;100.00;98422.59;4180126;34;34406;-96
2023/05/17 02:22:08;;;;;;;;;;;;;;;14.15;100.00;98426.41;4191837;29;32341;-96
2023/05/17 02:24:46;;;;;;;;;;;;;;;14.24;100.00;98425.16;4181911;28;32928;-96
2023/05/17 02:27:35;;;;;;;;;;;;;;;14.21;100.00;98426.13;4161187;29;34202;-96
2023/05/17 02:30:31;;;;;;;;;;;;;;;14.12;100.00;98441.38;4163775;29;32910;-96
2023/05/17 02:33:21;;;;;;;;;;;;;;;14.13;100.00;98443.91;4165594;34;32567;-96
2023/05/17 02:36:05;;;;;;;;;;;;;;;14.99;100.00;98450.03;4157458;29;32662;-96
2023/05/17 02:38:36;;;;;;;;;;;;;;;14.83;100.00;98459.47;4163984;34;34352;-96
2023/05/17 02:41:12;;;;;;;;;;;;;;;14.55;100.00;98471.91;4174905;34;34537;-96
2023/05/17 02:44:03;;;;;;;;;;;;;;;14.00;100.00;98484.59;4166901;29;33263;-96
2023/05/17 02:46:36;;;;;;;;;;;;;;;13.86;100.00;98473.78;4161247;34;32953;-96
2023/05/17 02:49:24;;;;;;;;;;;;;;;13.75;100.00;98477.66;4150921;34;34874;-96
2023/05/17 02:52:15;;;;;;;;;;;;;;;14.00;100.00;98471.50;4161112;34;36087;-96
2023/05/17 02:55:09;;;;;;;;;;;;;;;14.07;100.00;98478.19;4154599;34;32761;-96
2023/05/17 02:58:11;;;;;;;;;;;;;;;13.92;100.00;98477.00;4180759;28;34298;-96
2023/05/17 03:00:44;;;;;;;;;;;;;;;13.74;100.00;98473.31;4152448;34;32743;-96
2023/05/17 03:03:34;;;;;;;;;;;;;;;13.80;100.00;98478.34;4175537;28;36021;-96
2023/05/17 03:06:05;;;;;;;;;;;;;;;13.79;100.00;98476.63;4170303;28;32652;-96
2023/05/17 03:08:58;;;;;;;;;;;;;;;14.26;100.00;98472.22;4163196;34;31390;-96
2023/05/17 03:11:59;;;;;;;;;;;;;;;14.37;100.00;98470.91;4157965;34;34147;-96
2023/05/17 03:14:53;;;;;;;;;;;;;;;14.60;100.00;98477.00;4171620;28;34808;-96
2023/05/17 03:17:41;;;;;;;;;;;;;;;15.04;100.00;98489.19;4156856;34;32415;-96
2023/05/17 03:20:33;;;;;;;;;;;;;;;15.36;100.00;98496.47;4201475;28;34240;-96
2023/05/17 03:23:28;;;;;;;;;;;;;;;15.40;100.00;98496.34;4190275;34;33970;-96
2023/05/17 03:26:39;;;;;;;;;;;;;;;15.81;100.00;98491.03;4189397;28;35750;-96
2023/05/17 03:29:54;;;;;;;;;;;;;;;15.83;100.00;98490.06;4191171;28;32042;-96
2023/05/17 03:32:59;;;;;;;;;;;;;;;15.67;100.00;98495.12;4188378;34;33841;-96
2023/05/17 03:36:17;;;;;;;;;;;;;;;16.06;100.00;98496.88;4181301;34;34087;-96
2023/05/17 03:39:33;;;;;;;;;;;;;;;15.85;100.00;98509.22;4182630;34;35797;-96
2023/05/17 03:42:24;;;;;;;;;;;;;;;16.16;100.00;98512.19;4209271;28;32611;-96
2023/05/17 03:44:54;;;;;;;;;;;;;;;16.45;100.00;98503.78;4176177;34;33797;-96
2023/05/17 03:47:30;;;;;;;;;;;;;;;16.40;100.00;98508.41;4170068;28;34156;-96
2023/05/17 03:50:19;;;;;;;;;;;;;;;16.00;100.00;98517.31;4156120;34;33781;-96
2023/05/17 03:53:04;;;;;;;;;;;;;;;16.35;100.00;98522.69;4164309;34;32504;-96
2023/05/17 03:56:16;;;;;;;;;;;;;;;16.08;100.00;98529.16;4202799;28;32408;-96
2023/05/17 03:59:28;;;;;;;;;;;;;;;15.92;100.00;98541.31;4181242;28;33176;-96
2023/05/17 04:02:24;;;;;;;;;;;;;;;16.02;100.00;98541.72;4193622;34;34123;-96
2023/05/17 04:05:45;;;;;;;;;;;;;;;15.90;100.00;98540.50;4191888;28;32289;-96
2023/05/17 04:08:58;;;;;;;;;;;;;;;15.93;100.00;98543.00;4192605;28;33977;-96
2023/05/17 04:12:13;;;;;;;;;;;;;;;15.67;100.00;98554.63;4153334;34;34317;-96
2023/05/17 04:15:22;;;;;;;;;;;;;;;16.01;100.00;98556.62;4146337;34;33214;-96
2023/05/17 04:18:53;;;;;;;;;;;;;;;16.15;100.00;98560.37;4190892;29;33800;-96
2023/05/17 04:21:45;;;;;;;;;;;;;;;16.01;100.00;98561.88;4168794;34;34110;-96
2023/05/17 04:24:56;;;;;;;;;;;;;;;15.74;100.00;98558.69;4162577;34;35232;-96
2023/05/17 04:28:26;;;;;;;;;;;;;;;16.03;100.00;98560.03;4194755;28;33623;31
2023/05/17 04:31:39;;;;;;;;;;;;;;;16.24;100.00;98565.25;4210331;29;33133;-96
2023/05/17 04:35:09;;;;;;;;;;;;;;;15.99;100.00;98563.75;4198664;28;33324;-96
2023/05/17 04:38:29;;;;;;;;;;;;;;;16.49;100.00;98572.81;4187207;34;35080;-96
2023/05/17 04:41:53;;;;;;;;;;;;;;;16.28;100.00;98588.66;4161916;29;20024;-96
2023/05/17 04:45:02;;;;;;;;;;;;;;;16.21;100.00;98589.84;4122750;29;32325;-96
2023/05/17 04:48:07;;;;;;;;;;;;;;;16.14;100.00;98598.09;4124068;34;32802;-96
2023/05/17 04:51:30;;;;;;;;;;;;;;;16.05;100.00;98605.47;4128003;34;34581;-96
2023/05/17 04:54:48;;;;;;;;;;;;;;;16.25;100.00;98607.22;4131957;34;34946;-96
2023/05/17 04:57:40;;;;;;;;;;;;;;;16.28;100.00;98616.72;4129777;34;33767;-96
2023/05/17 05:01:00;;;;;;;;;;;;;;;16.41;100.00;98609.09;4188269;28;33731;-96
2023/05/17 05:04:12;;;;;;;;;;;;;;;16.48;100.00;98624.53;4175632;34;34273;-96
2023/05/17 05:07:07;;;;;;;;;;;;;;;16.77;99.08;98621.47;4180957;34;19991;-96
2023/05/17 05:10:01;;;;;;;;;;;;;;;16.59;100.00;98621.41;4182474;34;33480;-96
2023/05/17 05:13:12;;;;;;;;;;;;;;;16.47;100.00;98622.81;4153836;34;32201;-96
2023/05/17 05:16:07;;;;;;;;;;;;;;;16.52;98.96;98609.47;4164997;34;35567;-96
2023/05/17 05:19:08;;;;;;;;;;;;;;;16.53;100.00;98607.69;4151923;34;36039;-96
2023/05/17 05:22:11;;;;;;;;;;;;;;;16.60;100.00;98607.31;4128823;34;32608;-96
2023/05/17 05:25:07;;;;;;;;;;;;;;;16.60;100.00;98611.72;4145565;34;33075;-96
2023/05/17 05:28:07;;;;;;;;;;;;;;;16.60;100.00;98620.47;4138746;34;35115;-96
2023/05/17 05:30:57;;;;;;;;;;;;;;;17.04;98.94;98632.44;4166386;29;35659;-96
2023/05/17 05:34:02;;;;;;;;;;;;;;;16.78;100.00;98638.91;4160946;29;32160;-96
2023/05/17 05:37:00;;;;;;;;;;;;;;;17.07;98.77;98634.09;4154736;29;20012;-96
2023/05/17 05:39:58;;;;;;;;;;;;;;;16.83;98.88;98639.56;4193143;28;33915;-96
2023/05/17 05:42:56;;;;;;;;;;;;;;;17.07;97.87;98640.19;4155636;34;34731;-96
2023/05/17 05:46:21;;;;;;;;;;;;;;;16.79;98.33;98649.38;4163511;34;33800;-96
2023/05/17 05:49:39;;;;;;;;;;;;;;;16.65;100.00;98651.81;4158948;34;33033;-96
2023/05/17 05:52:45;;;;;;;;;;;;;;;16.93;99.38;98642.66;4157601;34;33747;-96
2023/05/17 05:56:00;;;;;;;;;;;;;;;16.92;98.73;98649.66;4185379;34;19991;-95
2023/05/17 06:09:13;;;;;;;;;;;;;;;16.90;100.00;98650.69;4451875;29;20010;-96
2023/05/17 06:12:33;;;;;;;;;;;;;;;17.08;99.57;98649.78;4147054;34;33590;-96
2023/05/17 06:15:36;;;;;;;;;;;;;;;17.25;96.72;98652.44;4134476;34;19988;-96
2023/05/17 06:18:47;;;;;;;;;;;;;;;17.40;96.32;98655.25;4155038;34;20467;-96
2023/05/17 06:22:05;;;;;;;;;;;;;;;17.29;96.24;98649.66;4155900;29;33804;-96
2023/05/17 06:25:31;;;;;;;;;;;;;;;17.32;96.90;98652.16;4283823;29;20014;-96
2023/05/17 06:28:28;;;;;;;;;;;;;;;17.38;95.43;98649.22;4171627;29;34013;-96
2023/05/17 06:31:58;;;;;;;;;;;;;;;17.34;95.15;98650.28;4361303;29;19998;-96
2023/05/17 06:35:24;;;;;;;;;;;;;;;17.12;95.75;98658.38;4185457;29;33982;-96
2023/05/17 06:38:19;;;;;;;;;;;;;;;17.19;97.28;98675.59;4119037;34;33753;-96
2023/05/17 06:41:25;;;;;;;;;;;;;;;16.84;99.50;98673.72;4280005;29;20083;-96
2023/05/17 06:44:31;;;;;;;;;;;;;;;17.32;95.91;98673.22;4140575;34;36419;-96
2023/05/17 06:47:50;;;;;;;;;;;;;;;17.09;97.23;98688.31;4115778;34;34959;-96
2023/05/17 06:50:44;;;;;;;;;;;;;;;17.48;95.57;98684.69;4146032;34;32341;-96
2023/05/17 06:53:57;;;;;;;;;;;;;;;17.37;95.25;98697.53;4339560;29;33310;-96
2023/05/17 06:57:02;;;;;;;;;;;;;;;17.19;97.29;98699.28;4214044;29;34489;-96
2023/05/17 07:00:11;;;;;;;;;;;;;;;17.38;95.84;98693.94;4163879;34;32929;-96
2023/05/17 07:03:26;;;;;;;;;;;;;;;17.25;98.46;98697.16;4327372;28;33567;-96
2023/05/17 07:07:14;;;;;;;;;;;;;;;17.20;99.92;98704.44;4189638;34;19975;-96
2023/05/17 07:10:22;;;;;;;;;;;;;;;17.53;94.62;98709.00;4562274;28;35313;-96
2023/05/17 07:13:06;;;;;;;;;;;;;;;17.17;96.39;98711.63;4316056;28;33178;-96
2023/05/17 07:23:45;;;;;;;;;;;;;;;17.32;95.40;98718.78;2772567;29;20329;-96
2023/05/17 07:27:11;;;;;;;;;;;;;;;17.41;95.47;98705.19;3338618;29;20282;-96
2023/05/17 07:41:15;;;;;;;;;;;;;;;17.57;91.57;98710.53;4340458;29;20016;-96
2023/05/17 07:48:00;;;;;;;;;;;;;;;17.31;92.25;98718.84;4203090;29;32917;-96
2023/05/17 07:51:32;;;;;;;;;;;;;;;17.25;93.22;98726.13;4447788;29;19971;-96
2023/05/17 07:55:11;;;;;;;;;;;;;;;17.49;91.08;98728.50;4318355;29;34892;-96
2023/05/17 08:11:56;;;;;;;;;;;;;;;17.27;91.05;98736.56;4249017;29;31658;-96
2023/05/17 09:30:41;;;;;;;;;;;;;;;18.28;85.31;98743.03;4359457;28;20006;-96
2023/05/17 09:45:13;;;;;;;;;;;;;;;18.12;84.19;98795.66;4547147;28;19958;-96
2023/05/17 09:48:46;;;;;;;;;;;;;;;17.83;85.89;98799.72;4241859;28;34007;-96
2023/05/17 09:52:38;;;;;;;;;;;;;;;17.67;87.50;98804.87;4272376;29;19991;-96
2023/05/17 09:55:56;;;;;;;;;;;;;;;17.95;84.25;98804.44;4347559;28;34395;31
2023/05/17 09:59:48;;;;;;;;;;;;;;;17.69;85.66;98808.28;4422398;29;20019;-96
2023/05/17 10:02:59;;;;;;;;;;;;;;;17.28;87.68;98808.47;4221395;29;20012;-96
2023/05/17 10:09:21;;;;;;;;;;;;;;;17.23;86.23;98827.13;4216918;29;20011;-96
2023/05/17 10:13:11;;;;;;;;;;;;;;;17.50;84.88;98819.69;4257185;29;36003;-96
2023/05/17 10:16:44;;;;;;;;;;;;;;;17.23;87.07;98820.06;4205177;29;34737;-96
2023/05/17 10:26:43;;;;;;;;;;;;;;;16.83;89.14;98821.00;4174134;34;35268;-96
2023/05/17 10:29:53;;;;;;;;;;;;;;;16.97;88.74;98825.66;4202801;34;33531;-96
2023/05/17 10:33:30;;;;;;;;;;;;;;;17.00;89.99;98820.28;4302895;28;35520;-96
2023/05/17 10:37:12;;;;;;;;;;;;;;;16.87;89.86;98822.59;4238126;28;35270;-96
2023/05/17 10:40:06;;;;;;;;;;;;;;;16.57;91.58;98832.66;4181897;34;33120;-96
2023/05/17 10:43:04;;;;;;;;;;;;;;;16.61;90.83;98839.50;4289263;28;33580;-96
2023/05/17 10:46:24;;;;;;;;;;;;;;;16.63;89.05;98842.91;4182678;34;35222;-96
2023/05/17 10:49:52;;;;;;;;;;;;;;;16.87;87.65;98841.87;4232409;28;36533;-96
2023/05/17 10:53:13;;;;;;;;;;;;;;;16.78;88.26;98837.00;4196927;28;34822;-96
2023/05/17 11:03:33;;;;;;;;;;;;;;;16.37;88.92;98850.13;3780127;28;23993358;-96
2023/05/17 11:06:43;;;;;;;;;;;;;;;16.44;90.44;98856.84;4249158;28;34384;-96
2023/05/17 11:10:02;;;;;;;;;;;;;;;16.65;89.80;98872.63;4428429;28;20003;-96
2023/05/17 11:16:41;;;;;;;;;;;;;;;17.19;84.45;98873.75;4345912;28;19964;-96
2023/05/17 11:19:57;;;;;;;;;;;;;;;16.87;86.41;98873.44;4191436;34;35312;-96
2023/05/17 11:23:30;;;;;;;;;;;;;;;17.17;85.14;98880.00;4247178;28;19982;-96
2023/05/17 11:26:47;;;;;;;;;;;;;;;16.29;89.13;98870.63;4492704;28;35500;-96
2023/05/17 11:29:55;;;;;;;;;;;;;;;16.70;85.71;98881.16;4280064;28;34200;-96
2023/05/17 11:33:11;;;;;;;;;;;;;;;16.75;86.10;98879.19;4208491;28;34095;-96
2023/05/17 11:36:26;;;;;;;;;;;;;;;16.52;87.45;98884.56;4191806;28;33550;-96
2023/05/17 11:39:29;;;;;;;;;;;;;;;16.61;85.89;98892.91;4190538;29;31644;-96
2023/05/17 11:42:49;;;;;;;;;;;;;;;16.48;88.83;98886.47;4197754;28;34262;-96
2023/05/17 11:45:47;;;;;;;;;;;;;;;17.34;83.88;98890.63;4179986;34;34442;-96
2023/05/17 11:48:49;;;;;;;;;;;;;;;17.44;82.38;98893.69;4140641;29;32912;-96
2023/05/17 11:52:10;;;;;;;;;;;;;;;16.81;82.51;98897.31;4140616;29;32764;-96
2023/05/17 11:55:29;;;;;;;;;;;;;;;16.49;85.54;98896.06;4133935;34;35291;-96
2023/05/17 11:58:37;;;;;;;;;;;;;;;16.86;84.07;98898.00;4122800;34;34395;-96
2023/05/17 12:01:44;;;;;;;;;;;;;;;16.59;84.96;98888.63;4132448;29;32003;-96
2023/05/17 12:05:08;;;;;;;;;;;;;;;16.69;84.14;98900.47;4157229;29;20010;31
2023/05/17 12:07:58;;;;;;;;;;;;;;;16.98;82.93;98895.78;4151147;34;35126;-96
2023/05/17 12:11:15;;;;;;;;;;;;;;;16.77;83.08;98908.03;4162201;34;33373;-96
2023/05/17 12:14:44;;;;;;;;;;;;;;;17.16;84.41;98907.25;4160145;29;32005;-96
2023/05/17 12:17:40;;;;;;;;;;;;;;;17.38;80.81;98905.38;4180373;34;34909;-96
2023/05/17 12:20:18;;;;;;;;;;;;;;;17.55;79.63;98909.00;4168175;34;35184;-96
2023/05/17 12:22:55;;;;;;;;;;;;;;;17.48;83.38;98905.78;4157406;34;33781;-96
2023/05/17 12:26:40;;;;;;;;;;;;;;;17.96;78.34;98901.78;4245160;29;33262;-96
2023/05/17 12:29:52;;;;;;;;;;;;;;;17.97;79.91;98906.13;4350999;28;33763;-96
2023/05/17 12:33:15;;;;;;;;;;;;;;;18.04;78.53;98903.22;4207563;28;34879;-96
2023/05/17 12:36:12;;;;;;;;;;;;;;;17.60;79.89;98905.22;4194119;28;34749;-96
2023/05/17 12:46:16;;;;;;;;;;;;;;;18.07;79.49;98913.59;4192530;29;20007;-96
2023/05/17 12:49:26;;;;;;;;;;;;;;;17.93;78.90;98922.16;4382160;29;35870;-96
2023/05/17 12:59:35;;;;;;;;;;;;;;;18.08;78.48;98931.97;4621741;28;20002;-96
2023/05/17 13:03:19;;;;;;;;;;;;;;;18.15;77.53;98927.25;4149648;34;36020;-96
2023/05/17 13:13:44;;;;;;;;;;;;;;;17.51;78.16;98929.34;4174747;29;34443;-96
2023/05/17 13:26:16;;;;;;;;;;;;;;;16.76;79.51;98932.63;4565576;29;19974;-96
2023/05/17 13:29:40;;;;;;;;;;;;;;;16.71;82.02;98935.44;4163432;34;33794;-96
2023/05/17 13:32:46;;;;;;;;;;;;;;;16.97;79.44;98942.25;4132113;34;33202;-96
2023/05/17 13:35:47;;;;;;;;;;;;;;;16.95;80.83;98948.50;4133014;34;34340;-96
2023/05/17 13:38:55;;;;;;;;;;;;;;;16.75;79.60;98955.44;4168651;29;35205;-96
2023/05/17 13:41:57;;;;;;;;;;;;;;;16.60;81.31;98943.78;4182541;34;35166;-96
2023/05/17 13:45:15;;;;;;;;;;;;;;;16.63;81.22;98934.91;4256315;28;32955;-96
2023/05/17 13:48:09;;;;;;;;;;;;;;;16.38;82.66;98938.56;4219104;29;32988;-96
2023/05/17 13:51:36;;;;;;;;;;;;;;;16.47;81.43;98943.44;4310639;28;20015;-96
2023/05/17 13:54:54;;;;;;;;;;;;;;;16.33;81.08;98939.69;4533055;28;33013;-96
2023/05/17 13:58:16;;;;;;;;;;;;;;;16.52;81.32;98940.63;4249347;28;34096;-95
2023/05/17 14:01:37;;;;;;;;;;;;;;;16.36;82.75;98935.16;4272485;28;33875;-96
2023/05/17 14:05:21;;;;;;;;;;;;;;;16.66;80.57;98947.94;4323016;28;33531;31
2023/05/17 14:09:03;;;;;;;;;;;;;;;17.00;78.43;98949.16;4629896;28;35982;-96
2023/05/17 14:12:48;;;;;;;;;;;;;;;16.62;79.99;98949.84;4192821;34;32049;-96
2023/05/17 14:23:38;;;;;;;;;;;;;;;16.45;81.25;98966.31;4228215;28;32862;-96
2023/05/17 14:27:28;;;;;;;;;;;;;;;16.35;78.46;98958.84;4278861;28;20063;31
2023/05/17 14:38:30;;;;;;;;;;;;;;;16.14;79.37;98994.72;4176710;28;32711;-96
2023/05/17 14:41:45;;;;;;;;;;;;;;;16.08;78.25;98987.94;4278051;29;35111;-96
2023/05/17 14:45:05;;;;;;;;;;;;;;;15.92;79.13;98992.94;4317146;28;32791;-96
2023/05/17 14:48:24;;;;;;;;;;;;;;;15.52;80.47;98994.37;4363681;28;20007;-96
2023/05/17 14:52:12;;;;;;;;;;;;;;;15.64;80.74;98991.31;4379451;29;19971;31
2023/05/17 14:55:22;;;;;;;;;;;;;;;15.68;80.41;98990.25;4201504;29;32821;-96
2023/05/17 14:59:09;;;;;;;;;;;;;;;15.43;81.14;99002.59;4565246;29;34577;-96
2023/05/17 15:03:14;;;;;;;;;;;;;;;15.31;81.28;98994.22;4865488;29;19998;31
2023/05/17 15:06:42;;;;;;;;;;;;;;;15.26;82.73;98993.53;4108091;34;36656;-96
2023/05/17 15:10:40;;;;;;;;;;;;;;;15.20;82.67;99009.50;4352982;28;34579;-96
2023/05/17 15:13:56;;;;;;;;;;;;;;;14.90;84.71;99011.41;4471711;28;32430;-96
2023/05/17 15:20:54;;;;;;;;;;;;;;;14.78;85.82;99012.66;4503428;28;19989;-96
2023/05/17 15:27:31;;;;;;;;;;;;;;;15.20;83.00;99027.84;4326387;28;20061;-96
2023/05/17 15:34:14;;;;;;;;;;;;;;;15.34;81.75;99036.09;4136760;34;35360;-96
2023/05/17 15:37:26;;;;;;;;;;;;;;;15.20;81.64;99035.72;4185499;28;34399;-96
2023/05/17 15:41:16;;;;;;;;;;;;;;;14.76;83.88;99043.31;4275603;28;35353;-96
2023/05/17 15:44:55;;;;;;;;;;;;;;;15.20;82.33;99035.72;4290861;28;35759;31
2023/05/17 15:56:25;;;;;;;;;;;;;;;14.62;85.71;99048.16;4241952;28;33532;31
2023/05/17 16:03:45;;;;;;;;;;;;;;;15.01;85.08;99045.12;4555735;28;19960;-96
2023/05/17 16:07:27;;;;;;;;;;;;;;;14.33;89.12;99056.00;4635070;28;34926;-96
2023/05/17 16:10:52;;;;;;;;;;;;;;;14.46;88.31;99053.84;4361569;28;32808;-96
2023/05/17 16:14:16;;;;;;;;;;;;;;;14.51;86.87;99057.19;4198570;28;36760;-96
2023/05/17 16:21:46;;;;;;;;;;;;;;;14.18;89.10;99062.53;4237585;29;20030;-96
2023/05/17 16:24:57;;;;;;;;;;;;;;;13.99;90.12;99059.62;4170240;34;33885;-96
2023/05/17 16:32:24;;;;;;;;;;;;;;;13.94;89.44;99063.25;4512733;28;20051;31
2023/05/17 16:36:58;;;;;;;;;;;;;;;13.67;91.03;99068.38;4294134;28;34367;31
2023/05/17 16:44:02;;;;;;;;;;;;;;;13.69;91.54;99087.50;4445933;28;19993;-96
2023/05/17 16:47:41;;;;;;;;;;;;;;;13.70;91.93;99089.22;4273391;29;34261;-96
2023/05/17 16:55:22;;;;;;;;;;;;;;;13.40;91.34;99086.53;4256167;29;33059;-96
2023/05/17 16:59:28;;;;;;;;;;;;;;;13.42;91.20;99100.41;4437744;29;35821;-96
2023/05/17 17:02:44;;;;;;;;;;;;;;;13.02;92.79;99090.97;4174310;34;32610;-96
2023/05/17 17:05:44;;;;;;;;;;;;;;;13.11;92.87;99094.22;4304653;29;33139;-96
2023/05/17 17:09:39;;;;;;;;;;;;;;;13.26;92.10;99094.69;4136701;34;33295;-96
2023/05/17 17:12:57;;;;;;;;;;;;;;;12.92;93.27;99097.31;4257976;28;20011;-96
2023/05/17 17:16:43;;;;;;;;;;;;;;;13.44;90.70;99118.69;4176926;29;35813;-96
2023/05/17 17:20:44;;;;;;;;;;;;;;;13.00;91.71;99107.56;4757115;29;21023;-96
2023/05/17 17:24:06;;;;;;;;;;;;;;;12.93;92.88;99106.84;4166768;29;33930;-96
2023/05/17 17:27:34;;;;;;;;;;;;;;;13.29;90.78;99114.69;4192194;29;33650;-96
2023/05/17 17:31:02;;;;;;;;;;;;;;;13.17;91.27;99115.84;4185555;34;34690;-94
2023/05/17 17:34:26;;;;;;;;;;;;;;;12.94;92.69;99119.03;4669571;29;19974;-96
2023/05/17 17:37:34;;;;;;;;;;;;;;;12.93;91.74;99119.06;4379228;28;32418;-96
2023/05/17 17:41:02;;;;;;;;;;;;;;;13.03;90.96;99118.81;4307390;28;35231;31
2023/05/17 17:44:19;;;;;;;;;;;;;;;12.79;92.49;99117.63;4201812;28;34879;-96
2023/05/17 17:47:35;;;;;;;;;;;;;;;12.74;92.17;99136.91;4158211;28;32407;-96
2023/05/17 17:50:45;;;;;;;;;;;;;;;12.75;92.95;99139.50;4172692;34;35139;-96
2023/05/17 17:54:13;;;;;;;;;;;;;;;12.62;94.11;99138.06;4212710;29;36777;-96
2023/05/17 17:57:18;;;;;;;;;;;;;;;12.47;94.16;99144.47;4354789;28;34559;-96
2023/05/17 18:00:03;;;;;;;;;;;;;;;12.80;91.60;99142.03;4183726;34;32293;-96
2023/05/17 18:02:38;;;;;;;;;;;;;;;12.98;89.68;99141.56;4189397;34;32716;-96
2023/05/17 18:06:24;;;;;;;;;;;;;;;12.87;90.93;99143.59;4156994;34;36808;-96
2023/05/17 18:09:23;;;;;;;;;;;;;;;12.68;91.87;99143.16;4328444;28;35207;-96
2023/05/17 18:15:45;;;;;;;;;;;;;;;12.83;90.15;99136.69;4318275;28;20004;-96
2023/05/17 18:19:17;;;;;;;;;;;;;;;12.70;90.30;99138.75;4188450;29;33313;-96
2023/05/17 18:22:05;;;;;;;;;;;;;;;12.64;91.15;99151.97;4196024;29;32948;-96
2023/05/17 18:26:00;;;;;;;;;;;;;;;12.67;91.65;99157.97;4239738;29;20008;-96
2023/05/17 18:28:31;;;;;;;;;;;;;;;12.65;89.85;99157.16;4127911;34;33339;-96
2023/05/17 18:31:36;;;;;;;;;;;;;;;12.54;90.34;99159.12;4287216;29;36028;-96
2023/05/17 18:34:57;;;;;;;;;;;;;;;12.22;93.50;99154.59;4210089;29;36237;-96
2023/05/17 18:37:47;;;;;;;;;;;;;;;12.32;91.86;99156.97;4375118;28;32113;-96
2023/05/17 18:40:34;;;;;;;;;;;;;;;12.36;91.99;99160.38;4227380;29;32900;-96
2023/05/17 18:43:43;;;;;;;;;;;;;;;12.20;93.13;99162.44;4224982;29;20003;-96
2023/05/17 18:49:50;;;;;;;;;;;;;;;12.06;93.56;99159.25;4386405;28;19980;-96
